AirNav   TITAN Aviation Fuels
 
 663 users online  

79TE Arrowhead Airport
Lagarto, Texas, USA

GOING TO LAGARTO?


FAA INFORMATION EFFECTIVE 02 DECEMBER 2021

Location

FAA Identifier: 79TE
Lat/Long: 28-06-56.0370N 097-55-51.0020W
28-06.933950N 097-55.850033W
28.1155658,-97.9308339
(estimated)
Elevation: 165 ft. / 50 m (estimated)
Variation: 07E (1985)
Time zone: UTC -6 (UTC -5 during Daylight Saving Time)
Zip code: 78383

Airport Operations

Airport use: Private use. Permission required prior to landing
Activation date: 05/1971
Control tower: no
ARTCC: HOUSTON CENTER
FSS: SAN ANGELO FLIGHT SERVICE STATION
Attendance: IREG
Wind indicator: yes
Segmented circle: yes
Lights: ACTVT LIRL RY 13/31 - 122.85.

Airport Communications

WX AWOS-3 at BEA (17 nm NE): 118.675 (361-362-7627)
WX AWOS-3PT at 8T6 (18 nm NW): 119.05 (361-449-1119)

Nearby radio navigation aids

VOR radial/distance  VOR name  Freq  Var
ALIr006/(23.1)ALICE VOR114.5006E
THXr146/26.1THREE RIVERS VORTAC111.4008E
CRPr287/28.7CORPUS CHRISTI VORTAC115.5009E

 
NDB name  Hdg/Dist  Freq  Var  ID
MELLON RANCH250/39.637506EMNO -- -. ---

Airport Services

Airframe service: NONE
Powerplant service: NONE

Runway Information

Runway 13/31

Dimensions: 3400 x 100 ft. / 1036 x 30 m
Surface: turf, in good condition
Runway edge lights: low intensity
Runway edge markings: WHITE TIRES MARK THRS.
RUNWAY 13  RUNWAY 31
Traffic pattern: rightleft
Obstructions: 15 ft. pline, 160 ft. from runway, 125 ft. left of centerline, 10:1 slope to clear15 ft. road, 40 ft. from runway, 4:1 slope to clear

Airport Ownership and Management from official FAA records

Ownership: Privately-owned
Owner: LAKAERO VISTA CORP
520 RANGER DR
SANDIA, TX 78383
Phone 361-547-0306
Manager: MIKE PURDY/MOLLIE BARTON
520 RANGER DR
SANDIA, TX 78383
Phone 361-547-0306

Airport Operational Statistics

Aircraft based on the field: 10
Single engine airplanes: 10
    
Aircraft operations: avg 67/month
75% local general aviation
25% transient general aviation

Additional Remarks

TREES & BLDG PENT PRIM SFC & TRSN ZONE.
FOR CD CTC CORPUS CHRISTI APCH AT 361-299-4230.

Instrument Procedures

There are no published instrument procedures at 79TE.

Some nearby airports with instrument procedures:

KNOG - Orange Grove Naval Auxiliary Field (14 nm SW)
KBEA - Beeville Municipal Airport (17 nm NE)
8T6 - Live Oak County Airport (18 nm NW)
TX2 - Chase Field Industrial Airport (21 nm NE)
T69 - Alfred C 'Bubba' Thomas Airport (21 nm E)
 
Loc | Ops | Rwys | IFR | FBO | Links
Com | Nav | Svcs | Stats | Notes
Area around 79TE (Arrowhead Airport)
 
Road maps at: MapQuest Bing Google
 
Aerial photo
WARNING: Photo may not be current or correct
Aerial photo of 79TE (Arrowhead Airport)
Photo by Keith Chrastka
Photo taken 17-Nov-2012

Do you have a better or more recent aerial photo of Arrowhead Airport that you would like to share? If so, please send us your photo.

 
Sectional chart

 
Airport distance calculator
Flying to Arrowhead Airport? Find the distance to fly.

From to 79TE

Sunrise and sunset
Times for 08-Dec-2021
 Local
(UTC-6)
 Zulu
(UTC)
Morning civil twilight06:4712:47
Sunrise07:1213:12
Sunset17:3523:35
Evening civil twilight18:0100:01

Current date and time
Zulu (UTC)  08-Dec-2021 06:07:15
Local (UTC-6)  08-Dec-2021 00:07:15
 
METAR
KNOG 
14nm SW 
080556Z AUTO 26005KT 10SM OVC008 13/09 A3001 RMK AO2 SLP142 6//// T01330094 10167 20122 402000122 53004 PNO $
KBEA 
17nm NE 
080555Z AUTO 00000KT 10SM OVC020 16/13 A2998 RMK AO2 T01550125 10170 20150 401960103
KT69 
21nm E 
080555Z AUTO 00000KT 10SM OVC012 18/15 A2999 RMK A01
KALI 
23nm S 
080553Z AUTO 27003KT 10SM OVC008 14/10 A2999 RMK AO2 SLP154 T01440100 10172 20111 402060111 53003
KRBO 
24nm SE 
080555Z AUTO 12003KT 10SM OVC013 19/15 A2999 RMK AO2 T01920148 10195 20191 401970141
TAF
KALI 
23nm S 
080529Z 0806/0906 00000KT P6SM OVC007 TEMPO 0808/0812 3SM BR OVC004 FM081600 14008KT P6SM SCT020 BKN080
NOTAMs
Click for the latest NOTAMs
NOTAMs are issued by the DoD/FAA and will open in a separate window not controlled by AirNav.

 

 
 

Would you like to see your business listed on this page?

 If your business provides an interesting product or service to pilots, flight crews, aircraft, or users of the Arrowhead Airport, you should consider listing it here.  To start the listing process, click on the button below
 
Add a business
 

Other Pages about Arrowhead Airport

Update a link
 
Copyright © AirNav, LLC. All rights reserved. Privacy Policy  Contact